Time;durP1;ratioP1;P1;durP2;ratioP2;P2;SDS_P1;SDS_P2;PMS_P1;PMS_P2;Temp;Humidity;BMP_temperature;BMP_pressure;BME280_temperature;BME280_humidity;BME280_pressure;Samples;Min_cycle;Max_cycle;Signal;HPM_P1;HPM_P2
2022/04/24 00:04:49;;;;;;;4.65;4.07;;;;;;;13.22;47.43;98454.97;10235295;28;20055;-65
2022/04/24 00:09:51;;;;;;;8.20;7.05;;;;;;;13.14;47.98;98452.41;10237385;28;20137;-64
2022/04/24 00:14:52;;;;;;;15.10;13.60;;;;;;;12.92;48.27;98428.25;10249444;28;20552;-64
2022/04/24 00:19:53;;;;;;;6.50;5.85;;;;;;;12.88;48.46;98427.78;10233929;28;20445;-64
2022/04/24 00:24:55;;;;;;;4.50;4.10;;;;;;;12.87;49.06;98446.66;10235718;28;20055;-64
2022/04/24 00:29:56;;;;;;;6.30;4.65;;;;;;;12.54;48.35;98373.06;10232445;28;20067;-64
2022/04/24 00:34:58;;;;;;;4.32;3.92;;;;;;;12.81;48.61;98442.88;10240217;28;20047;-64
2022/04/24 00:39:59;;;;;;;3.70;3.40;;;;;;;12.64;49.01;98431.53;10237455;28;20058;-64
2022/04/24 00:45:00;;;;;;;3.92;3.53;;;;;;;12.43;48.95;98404.69;10236574;28;20065;-64
2022/04/24 00:50:02;;;;;;;4.25;3.65;;;;;;;12.49;49.03;98411.97;10238312;28;20130;-64
2022/04/24 00:55:05;;;;;;;5.40;4.20;;;;;;;12.62;48.83;98422.03;10237848;28;20154;-64
2022/04/24 01:00:07;;;;;;;5.60;3.78;;;;;;;12.56;48.90;98412.91;10236113;28;20110;-64
2022/04/24 01:05:09;;;;;;;5.07;3.65;;;;;;;12.56;48.47;98418.25;10250281;28;20133;-64
2022/04/24 01:10:11;;;;;;;4.22;3.92;;;;;;;12.66;48.19;98418.00;10233483;28;20062;-64
2022/04/24 01:15:13;;;;;;;3.75;3.45;;;;;;;12.67;48.28;98415.16;10239241;28;20794;-64
2022/04/24 01:20:19;;;;;;;4.57;4.07;;;;;;;12.52;48.63;98408.94;10234101;28;20047;-65
2022/04/24 01:25:21;;;;;;;4.20;3.83;;;;;;;12.65;48.64;98413.66;10238317;28;20074;-65
2022/04/24 01:30:22;;;;;;;4.07;3.67;;;;;;;12.73;48.21;98414.44;10238729;28;20055;-63
2022/04/24 01:35:24;;;;;;;4.38;3.95;;;;;;;12.71;48.24;98410.28;10232930;28;20047;-64
2022/04/24 01:40:25;;;;;;;4.28;3.67;;;;;;;12.76;48.16;98407.06;10234031;28;20061;-64
2022/04/24 01:45:27;;;;;;;4.80;4.22;;;;;;;12.64;48.18;98396.00;10237970;28;20055;-64
2022/04/24 01:50:28;;;;;;;4.40;4.00;;;;;;;12.75;48.06;98416.09;10229672;28;20425;-64
2022/04/24 01:55:29;;;;;;;4.18;3.88;;;;;;;12.70;47.82;98409.44;10233647;28;20081;-64
2022/04/24 02:00:31;;;;;;;4.43;3.60;;;;;;;12.66;47.88;98413.50;10236850;28;20643;-65
2022/04/24 02:05:33;;;;;;;4.78;4.38;;;;;;;12.62;47.91;98396.16;10229399;28;20441;-66
2022/04/24 02:10:34;;;;;;;5.25;4.15;;;;;;;12.67;47.79;98387.63;10232085;28;20126;-66
2022/04/24 02:15:36;;;;;;;5.13;4.68;;;;;;;12.58;48.08;98397.56;10232937;28;20038;-65
2022/04/24 02:20:37;;;;;;;4.68;4.28;;;;;;;12.46;48.21;98394.50;10237879;28;20065;-64
2022/04/24 02:25:39;;;;;;;4.38;4.03;;;;;;;12.43;48.18;98394.03;10229710;28;20453;-64
2022/04/24 02:30:40;;;;;;;4.80;4.40;;;;;;;12.43;48.00;98391.34;10230096;28;20134;-64
2022/04/24 02:35:42;;;;;;;4.40;4.00;;;;;;;12.30;48.28;98384.81;10237155;28;20058;-64
2022/04/24 02:40:43;;;;;;;4.32;3.92;;;;;;;12.41;48.38;98388.06;10232823;28;20060;-63
2022/04/24 02:45:44;;;;;;;6.22;4.15;;;;;;;12.28;48.19;98376.16;10234709;28;20057;-64
2022/04/24 02:50:46;;;;;;;4.45;4.05;;;;;;;12.28;48.60;98378.81;10242368;28;20158;-63
2022/04/24 02:55:47;;;;;;;4.32;3.95;;;;;;;12.32;48.75;98390.78;10239414;28;20615;-64
2022/04/24 03:00:51;;;;;;;4.80;4.35;;;;;;;12.29;48.99;98375.13;10237077;28;20065;-64
2022/04/24 03:05:53;;;;;;;4.85;4.45;;;;;;;12.17;48.61;98376.56;10239202;28;20055;-64
2022/04/24 03:10:54;;;;;;;4.88;4.47;;;;;;;12.15;49.04;98394.59;10241934;28;20062;-65
2022/04/24 03:15:55;;;;;;;5.03;4.53;;;;;;;12.15;48.67;98382.09;10238924;28;20721;-64
2022/04/24 03:20:57;;;;;;;4.95;4.55;;;;;;;11.96;49.00;98375.41;10240482;28;20403;-65
2022/04/24 03:25:58;;;;;;;5.25;4.70;;;;;;;12.00;49.30;98387.38;10242913;28;20057;-64
2022/04/24 03:30:59;;;;;;;6.28;4.88;;;;;;;11.76;49.89;98379.53;10234064;28;20795;-65
2022/04/24 03:36:01;;;;;;;6.50;4.70;;;;;;;11.93;49.89;98381.09;10236359;28;20065;-65
2022/04/24 03:41:02;;;;;;;5.82;4.68;;;;;;;11.99;49.37;98375.06;10240968;28;20107;-64
2022/04/24 03:46:05;;;;;;;5.47;5.00;;;;;;;11.87;50.01;98384.44;10237092;28;20736;-65
2022/04/24 03:51:08;;;;;;;6.03;5.53;;;;;;;11.79;49.94;98360.50;10236443;28;20053;-66
2022/04/24 03:56:09;;;;;;;5.38;4.93;;;;;;;11.96;49.18;98356.72;10234157;28;20058;-65
2022/04/24 04:01:12;;;;;;;4.82;4.43;;;;;;;11.91;49.74;98353.75;10229424;28;20079;-66
2022/04/24 04:06:13;;;;;;;6.05;5.47;;;;;;;11.92;49.77;98362.56;10234833;28;20066;-66
2022/04/24 04:11:15;;;;;;;6.50;5.57;;;;;;;12.08;50.96;98378.47;10236835;28;20070;-63
2022/04/24 04:16:16;;;;;;;5.80;5.30;;;;;;;12.07;49.36;98365.31;10244923;28;20051;-67
2022/04/24 04:21:17;;;;;;;6.05;5.50;;;;;;;12.10;49.94;98375.63;10236008;28;20066;-64
2022/04/24 04:26:19;;;;;;;6.07;4.97;;;;;;;11.91;49.73;98374.25;10238025;28;20055;-64
2022/04/24 04:31:20;;;;;;;5.85;5.28;;;;;;;11.89;50.65;98398.44;10232279;28;20055;-64
2022/04/24 04:36:22;;;;;;;5.75;5.15;;;;;;;11.77;50.45;98397.16;10233498;28;23089;-67
2022/04/24 04:41:23;;;;;;;5.22;4.80;;;;;;;11.89;49.98;98454.44;10235357;28;20039;-64
2022/04/24 04:46:24;;;;;;;6.00;5.50;;;;;;;11.90;50.50;98480.06;10235442;28;20166;-64
2022/04/24 04:51:26;;;;;;;5.38;4.97;;;;;;;12.10;51.42;98475.16;10237466;28;20043;-64
2022/04/24 04:56:27;;;;;;;5.50;5.00;;;;;;;12.33;50.90;98483.16;10235885;28;20063;-64
2022/04/24 05:01:28;;;;;;;6.53;5.93;;;;;;;12.36;50.37;98477.47;10233447;28;20051;-64
2022/04/24 05:06:30;;;;;;;6.25;5.72;;;;;;;12.38;50.31;98486.13;10238474;28;20058;-64
2022/04/24 05:11:31;;;;;;;5.95;5.40;;;;;;;12.40;50.25;98483.28;10239830;28;20058;-64
2022/04/24 05:16:33;;;;;;;7.05;6.43;;;;;;;12.53;51.38;98494.16;10229168;28;20051;-62
2022/04/24 05:21:34;;;;;;;6.70;6.10;;;;;;;12.54;51.42;98473.66;10221244;28;20051;-63
2022/04/24 05:26:36;;;;;;;6.07;5.47;;;;;;;12.48;53.33;98474.38;10254567;28;20110;-66
2022/04/24 05:31:37;;;;;;;6.55;6.05;;;;;;;12.50;54.05;98485.69;10252807;28;20055;-65
2022/04/24 05:36:39;;;;;;;6.18;5.68;;;;;;;12.43;54.64;98482.94;10273784;28;20078;-66
2022/04/24 05:41:40;;;;;;;6.43;5.88;;;;;;;12.43;55.11;98484.75;10222352;28;20058;-64
2022/04/24 05:46:41;;;;;;;7.30;6.57;;;;;;;12.33;56.60;98471.66;10216224;28;20046;-65
2022/04/24 05:51:43;;;;;;;7.10;6.47;;;;;;;11.88;56.14;98474.09;10218028;28;20054;-64
2022/04/24 05:56:44;;;;;;;7.32;6.38;;;;;;;11.72;57.74;98468.84;10217300;28;20054;-65
2022/04/24 06:01:46;;;;;;;7.68;6.97;;;;;;;12.03;56.80;98469.69;10215056;28;20054;-64
2022/04/24 06:06:47;;;;;;;7.28;6.68;;;;;;;12.17;55.89;98464.59;10210872;28;20125;-65
2022/04/24 06:11:48;;;;;;;8.02;7.30;;;;;;;12.18;56.29;98458.25;10211828;28;20707;-66
2022/04/24 06:16:50;;;;;;;7.82;7.00;;;;;;;12.36;57.03;98471.31;10213584;28;20046;-64
2022/04/24 06:21:51;;;;;;;8.50;7.70;;;;;;;12.35;57.14;98475.78;10215278;28;20055;-62
2022/04/24 06:26:53;;;;;;;8.35;7.55;;;;;;;12.45;56.46;98480.06;10212896;28;20053;-66
2022/04/24 06:32:00;;;;;;;8.90;8.20;;;;;;;12.41;58.00;98481.44;10241785;28;20490;-64
2022/04/24 06:37:02;;;;;;;9.70;8.73;;;;;;;12.37;57.20;98476.47;10210670;28;20054;-63
2022/04/24 06:42:04;;;;;;;9.55;7.80;;;;;;;12.48;57.06;98474.38;10209047;28;20059;-64
2022/04/24 06:47:05;;;;;;;8.32;7.50;;;;;;;12.52;56.54;98471.16;10211466;28;20085;-65
2022/04/24 06:52:07;;;;;;;8.65;7.75;;;;;;;12.73;55.88;98478.50;10212313;28;20714;-63
2022/04/24 06:57:09;;;;;;;8.20;7.50;;;;;;;12.94;57.25;98484.13;10208435;28;20125;-65
2022/04/24 07:02:10;;;;;;;8.88;8.07;;;;;;;13.14;55.13;98471.91;10209461;28;20089;-64
2022/04/24 07:07:12;;;;;;;9.43;8.63;;;;;;;13.27;55.05;98468.63;10211552;28;20054;-65
2022/04/24 07:12:14;;;;;;;9.82;8.77;;;;;;;13.36;54.14;98456.00;10209626;28;20054;-65
2022/04/24 07:17:15;;;;;;;9.10;8.30;;;;;;;13.58;53.56;98454.22;10229864;28;20051;-65
2022/04/24 07:22:16;;;;;;;9.25;8.35;;;;;;;14.00;53.13;98455.31;10212986;28;20058;-65
2022/04/24 07:27:18;;;;;;;8.68;7.97;;;;;;;14.06;51.02;98441.19;10215641;28;20526;-64
2022/04/24 07:32:19;;;;;;;9.07;8.27;;;;;;;14.23;50.42;98446.28;10223386;28;20055;-64
2022/04/24 07:37:20;;;;;;;9.82;9.02;;;;;;;14.06;50.08;98418.97;10231608;28;20055;-64
2022/04/24 07:42:22;;;;;;;9.63;8.77;;;;;;;14.51;49.87;98451.69;10252320;28;20059;-63
2022/04/24 07:47:23;;;;;;;8.93;8.13;;;;;;;14.84;49.97;98459.19;10222485;28;20085;-63
2022/04/24 07:52:25;;;;;;;9.38;8.45;;;;;;;14.83;49.38;98458.38;10216237;28;20051;-62
2022/04/24 07:57:26;;;;;;;9.57;8.77;;;;;;;14.76;50.00;98451.31;10215822;28;20581;-67
2022/04/24 08:02:27;;;;;;;9.63;8.77;;;;;;;15.11;48.46;98464.75;10215170;28;20047;-62
2022/04/24 08:07:29;;;;;;;10.73;9.82;;;;;;;15.01;48.53;98465.06;10214051;28;20055;-61
2022/04/24 08:12:30;;;;;;;9.20;8.40;;;;;;;14.73;49.22;98468.59;10221151;28;20555;-63
2022/04/24 08:17:32;;;;;;;11.25;10.32;;;;;;;14.50;49.32;98472.28;10211468;28;20047;-63
2022/04/24 08:22:45;;;;;;;9.82;8.93;;;;;;;14.54;49.59;98477.25;10209533;28;20055;-63
2022/04/24 08:27:48;;;;;;;10.48;9.57;;;;;;;14.62;49.49;98471.78;10212257;28;20066;-64
2022/04/24 08:32:50;;;;;;;10.45;9.55;;;;;;;14.72;48.53;98474.97;10213196;28;20728;-64
2022/04/24 08:37:52;;;;;;;10.15;9.25;;;;;;;14.83;48.78;98473.59;10220889;28;20149;-61
2022/04/24 08:42:54;;;;;;;10.23;9.43;;;;;;;15.00;48.80;98479.50;10210740;28;20575;-62
2022/04/24 08:47:57;;;;;;;10.38;9.52;;;;;;;15.29;48.09;98467.72;10211833;28;20054;-62
2022/04/24 08:52:59;;;;;;;10.48;9.48;;;;;;;15.92;46.57;98465.97;10207869;28;20161;-62
2022/04/24 08:58:01;;;;;;;10.02;9.20;;;;;;;16.33;46.01;98468.53;10212130;28;20145;-63
2022/04/24 09:03:02;;;;;;;10.05;9.25;;;;;;;16.59;45.01;98462.38;10213136;28;20054;-62
2022/04/24 09:08:08;;;;;;;9.25;8.45;;;;;;;16.62;45.12;98453.09;10209859;28;20091;-63
2022/04/24 09:13:32;;;;;;;9.80;8.90;;;;;;;16.64;44.72;98459.06;10212449;28;20042;-66
2022/04/24 09:18:40;;;;;;;10.38;9.38;;;;;;;16.84;44.77;98459.03;10214161;28;20325;-63
2022/04/24 09:23:42;;;;;;;11.00;9.93;;;;;;;16.47;45.32;98460.50;10216367;28;20042;-65
2022/04/24 09:28:44;;;;;;;11.50;10.50;;;;;;;16.88;44.15;98463.00;10215702;28;20068;-63
2022/04/24 09:33:46;;;;;;;9.75;8.82;;;;;;;16.72;44.41;98466.09;10213856;28;20532;-63
2022/04/24 09:38:47;;;;;;;10.55;9.65;;;;;;;16.64;44.59;98469.00;10213746;28;20066;-66
2022/04/24 09:43:52;;;;;;;10.23;9.13;;;;;;;16.87;44.46;98469.41;10214263;28;20722;-64
2022/04/24 09:48:57;;;;;;;10.02;9.13;;;;;;;16.82;44.11;98482.63;10214693;28;20410;-65
2022/04/24 09:54:00;;;;;;;10.63;9.70;;;;;;;16.65;44.64;98481.38;10213450;28;20047;-64
2022/04/24 09:59:03;;;;;;;10.15;9.15;;;;;;;16.81;45.35;98478.28;10213323;28;20157;-67
2022/04/24 10:04:05;;;;;;;10.48;9.50;;;;;;;16.78;45.07;98458.03;10206589;28;20065;-65
2022/04/24 10:09:10;;;;;;;9.93;9.15;;;;;;;16.78;44.88;98476.00;10205216;28;20178;-65
2022/04/24 10:14:16;;;;;;;11.43;10.45;;;;;;;16.53;44.59;98459.66;10190254;28;20106;-64
2022/04/24 10:19:42;;;;;;;11.05;10.05;;;;;;;16.58;44.44;98498.31;10208733;28;20060;-63
2022/04/24 10:24:44;;;;;;;9.68;8.88;;;;;;;16.25;45.25;98501.78;10204164;28;20954;-65
2022/04/24 10:29:59;;;;;;;9.98;9.07;;;;;;;15.83;44.58;98476.06;10198381;28;20065;-63
2022/04/24 10:35:00;;;;;;;;;;;;;;;15.85;45.17;98514.22;10209487;28;20066;-62
2022/04/24 10:40:03;;;;;;;9.00;8.10;;;;;;;15.97;45.59;98496.53;10205544;28;19931;-63
2022/04/24 10:45:12;;;;;;;9.40;8.60;;;;;;;15.85;44.54;98508.88;10201126;28;20059;-64
2022/04/24 10:50:14;;;;;;;9.63;8.48;;;;;;;15.59;45.01;98499.66;10204988;28;20054;-64
2022/04/24 10:55:22;;;;;;;9.77;8.77;;;;;;;15.71;45.16;98514.13;10207627;28;20055;-64
2022/04/24 11:00:34;;;;;;;9.23;8.43;;;;;;;15.96;45.02;98510.13;10214287;28;20057;-64
2022/04/24 11:05:41;;;;;;;8.68;7.97;;;;;;;16.07;44.35;98523.81;10215560;28;20170;-66
2022/04/24 11:10:45;;;;;;;9.20;8.30;;;;;;;15.76;44.58;98505.50;10214713;28;20069;-63
2022/04/24 11:15:50;;;;;;;8.60;7.80;;;;;;;15.76;43.93;98515.41;10214409;28;20057;-65
2022/04/24 11:20:56;;;;;;;8.13;7.43;;;;;;;15.93;44.13;98527.50;10216277;28;20061;-63
2022/04/24 11:25:58;;;;;;;8.68;7.80;;;;;;;15.95;43.57;98524.59;10248020;28;20611;-63
2022/04/24 11:31:32;;;;;;;8.15;7.43;;;;;;;15.97;43.40;98519.84;10217655;28;20061;-64
2022/04/24 11:36:34;;;;;;;8.80;8.00;;;;;;;16.09;43.80;98537.03;10194436;28;20574;-63
2022/04/24 11:41:36;;;;;;;8.60;7.90;;;;;;;16.10;43.21;98541.38;10215788;28;20094;-63
2022/04/24 11:51:59;;;;;;;8.82;8.13;;;;;;;16.24;42.82;98551.16;10212606;28;21377;-63
2022/04/24 11:57:00;;;;;;;9.45;8.60;;;;;;;16.45;41.96;98560.06;10210309;28;20357;-63
2022/04/24 12:02:02;;;;;;;9.80;8.90;;;;;;;16.67;41.68;98559.91;10215207;28;20698;-62
2022/04/24 12:07:05;;;;;;;9.43;8.63;;;;;;;16.76;41.48;98547.94;10216769;28;20066;-63
2022/04/24 12:12:14;;;;;;;10.77;9.10;;;;;;;17.52;40.82;98562.84;10209098;28;20059;-63
2022/04/24 12:17:16;;;;;;;10.27;9.25;;;;;;;18.62;38.44;98556.59;10212913;28;20699;-64
2022/04/24 12:22:32;;;;;;;9.95;9.05;;;;;;;18.98;37.86;98565.09;10216310;28;20197;-63
2022/04/24 12:27:34;;;;;;;9.05;8.25;;;;;;;18.95;37.71;98563.66;10216941;28;20676;-64
2022/04/24 12:32:38;;;;;;;10.38;9.38;;;;;;;18.60;38.46;98574.03;10212756;28;20065;-64
2022/04/24 12:37:45;;;;;;;9.15;8.30;;;;;;;18.17;39.74;98575.50;10214423;28;20742;-64
2022/04/24 12:42:51;;;;;;;10.73;9.57;;;;;;;17.98;40.09;98572.66;10218889;28;20055;-63
2022/04/24 12:47:53;;;;;;;9.82;9.00;;;;;;;17.57;41.46;98581.03;10246100;28;20504;-66
2022/04/24 12:52:55;;;;;;;10.25;9.35;;;;;;;16.93;42.57;98586.00;10212767;28;20051;-63
2022/04/24 12:57:56;;;;;;;10.68;9.68;;;;;;;16.75;43.11;98584.72;10213642;28;20055;-64
2022/04/24 13:02:58;;;;;;;9.77;8.98;;;;;;;16.69;43.31;98590.06;10214975;28;20182;-63
2022/04/24 13:08:01;;;;;;;9.70;8.88;;;;;;;16.48;44.27;98583.81;10208628;28;20146;-64
2022/04/24 13:13:03;;;;;;;11.05;9.90;;;;;;;16.60;43.74;98597.50;10204255;28;20407;-64
2022/04/24 13:18:07;;;;;;;11.00;10.00;;;;;;;16.60;43.84;98601.03;10208613;28;20841;-63
2022/04/24 13:23:11;;;;;;;9.90;9.07;;;;;;;16.69;44.26;98598.94;10208258;28;20326;-63
2022/04/24 13:28:12;;;;;;;10.23;9.23;;;;;;;16.68;43.90;98609.91;10210038;28;20065;-64
2022/04/24 13:33:17;;;;;;;10.45;9.40;;;;;;;16.73;44.06;98607.44;10218044;28;20141;-62
2022/04/24 13:38:24;;;;;;;10.02;9.05;;;;;;;16.72;43.99;98613.84;10211322;28;20510;-65
2022/04/24 13:43:27;;;;;;;10.48;9.48;;;;;;;16.78;44.31;98621.09;10215178;28;20360;-65
2022/04/24 13:48:30;;;;;;;9.98;9.07;;;;;;;16.80;43.96;98624.41;10215745;28;20066;-64
2022/04/24 13:53:33;;;;;;;9.43;8.53;;;;;;;16.83;44.48;98639.28;10212084;28;20570;-63
2022/04/24 13:58:34;;;;;;;11.05;10.05;;;;;;;16.91;44.39;98645.34;10216797;28;20090;-65
2022/04/24 14:03:36;;;;;;;9.95;9.05;;;;;;;16.63;45.17;98642.75;10233518;28;20427;-62
2022/04/24 14:08:37;;;;;;;10.45;9.55;;;;;;;16.47;45.91;98654.69;10217572;28;20141;-65
2022/04/24 14:13:38;;;;;;;11.23;10.23;;;;;;;16.48;47.16;98663.56;10215568;28;20059;-63
2022/04/24 14:18:40;;;;;;;11.57;10.57;;;;;;;16.49;48.18;98667.91;10209969;28;20137;-62
2022/04/24 14:23:43;;;;;;;12.10;11.00;;;;;;;16.41;48.14;98674.31;10215535;28;20339;-63
2022/04/24 14:28:44;;;;;;;13.20;11.82;;;;;;;16.37;48.45;98689.16;10212008;28;21691;-65
2022/04/24 14:33:46;;;;;;;12.55;11.55;;;;;;;16.20;48.80;98681.41;10215065;28;21504;-62
2022/04/24 14:38:48;;;;;;;12.85;11.85;;;;;;;16.05;49.97;98692.28;10211682;28;20062;-63
2022/04/24 14:43:50;;;;;;;14.43;13.20;;;;;;;15.98;50.40;98693.25;10214124;28;20091;-63
2022/04/24 14:59:34;;;;;;;14.13;12.93;;;;;;;15.63;49.29;98728.88;10224788;28;20442;-63
2022/04/24 15:04:36;;;;;;;12.57;11.40;;;;;;;15.48;49.72;98728.97;10226225;28;20080;-63
2022/04/24 15:09:37;;;;;;;12.80;11.73;;;;;;;15.25;50.84;98739.03;10227008;28;20080;-62
2022/04/24 15:14:39;;;;;;;12.73;11.52;;;;;;;15.25;51.08;98736.34;10224645;28;20055;-63
2022/04/24 15:19:40;;;;;;;12.20;11.15;;;;;;;15.33;50.57;98739.75;10226315;28;20059;-64
2022/04/24 15:24:42;;;;;;;12.98;11.88;;;;;;;15.40;50.97;98760.44;10223228;28;20145;-65
2022/04/24 15:30:05;;;;;;;12.30;11.20;;;;;;;15.27;50.76;98758.47;10224547;28;20063;-64
2022/04/24 15:35:10;;;;;;;11.77;10.68;;;;;;;15.17;51.19;98756.06;10222918;28;20051;-64
2022/04/24 15:40:13;;;;;;;12.10;11.00;;;;;;;15.17;51.74;98756.91;10221309;28;20066;-63
2022/04/24 15:45:14;;;;;;;12.80;11.60;;;;;;;15.25;51.49;98781.94;10222522;28;20047;-63
2022/04/24 15:50:26;;;;;;;10.75;9.85;;;;;;;15.16;51.76;98787.41;10221963;28;20107;-63
2022/04/24 15:55:32;;;;;;;10.52;9.63;;;;;;;15.22;51.66;98785.81;10225166;28;20049;-62
2022/04/24 16:00:33;;;;;;;11.80;10.77;;;;;;;15.24;51.85;98778.44;10220467;28;20055;-63
2022/04/24 16:05:35;;;;;;;11.07;10.18;;;;;;;15.32;51.33;98794.38;10221123;28;20070;-63
2022/04/24 16:10:37;;;;;;;11.32;10.32;;;;;;;15.19;51.04;98784.34;10220811;28;20054;-63
2022/04/24 16:15:42;;;;;;;10.77;9.93;;;;;;;15.08;51.07;98786.69;10222592;28;20129;-63
2022/04/24 16:20:45;;;;;;;9.93;9.00;;;;;;;15.06;50.62;98805.63;10225221;28;20038;-64
2022/04/24 16:25:47;;;;;;;10.73;9.82;;;;;;;14.94;50.78;98807.16;10251894;28;20737;-63
2022/04/24 16:30:48;;;;;;;9.57;8.82;;;;;;;14.92;50.32;98825.25;10214640;28;20133;-64
2022/04/24 16:35:49;;;;;;;9.52;8.80;;;;;;;14.83;50.31;98828.03;10218196;28;20057;-63
2022/04/24 16:40:51;;;;;;;9.80;9.05;;;;;;;14.73;51.16;98819.44;10222197;28;20061;-63
2022/04/24 16:45:52;;;;;;;10.00;9.18;;;;;;;14.64;50.54;98816.03;10223231;28;20956;-63
2022/04/24 17:01:35;;;;;;;10.82;9.77;;;;;;;14.71;52.32;98813.41;10221396;28;20067;-63
2022/04/24 17:06:36;;;;;;;11.13;10.20;;;;;;;14.78;52.09;98827.75;10220528;28;20051;-64
2022/04/24 17:11:38;;;;;;;10.82;9.93;;;;;;;14.79;52.00;98829.41;10221344;28;20047;-64
2022/04/24 17:16:42;;;;;;;10.20;9.40;;;;;;;14.77;51.83;98833.28;10219251;28;20471;-64
2022/04/24 17:21:44;;;;;;;11.93;10.82;;;;;;;14.64;52.42;98833.94;10214307;28;20061;-63
2022/04/24 17:26:46;;;;;;;10.90;9.90;;;;;;;14.47;51.89;98801.13;10218832;28;20061;-63
2022/04/24 17:31:47;;;;;;;9.93;9.13;;;;;;;14.77;54.89;98855.56;10214856;28;20062;-63
2022/04/24 17:36:50;;;;;;;10.68;9.77;;;;;;;14.80;52.42;98841.78;10218621;28;20054;-63
2022/04/24 17:41:52;;;;;;;11.48;10.48;;;;;;;14.87;51.24;98867.84;10219444;28;20422;-63
2022/04/24 17:46:53;;;;;;;12.38;11.13;;;;;;;14.83;51.54;98864.69;10222738;28;20129;-64
2022/04/24 17:51:55;;;;;;;10.05;9.25;;;;;;;14.78;50.63;98857.19;10216364;28;20054;-62
2022/04/24 17:56:57;;;;;;;9.90;9.10;;;;;;;14.64;50.48;98866.09;10210219;28;20644;-63
2022/04/24 18:01:59;;;;;;;8.93;8.23;;;;;;;14.67;50.59;98881.78;10223866;28;20050;-62
2022/04/24 18:07:02;;;;;;;9.45;8.65;;;;;;;14.50;51.22;98873.03;10222677;28;20061;-68
2022/04/24 18:12:05;;;;;;;8.23;7.45;;;;;;;14.47;50.98;98892.13;10221059;28;20099;-62
2022/04/24 18:17:07;;;;;;;8.63;7.85;;;;;;;14.35;50.28;98890.91;10217604;28;20063;-62
2022/04/24 18:22:09;;;;;;;8.50;7.70;;;;;;;14.22;51.11;98902.25;10217468;28;20055;-62
2022/04/24 18:27:11;;;;;;;7.50;6.90;;;;;;;14.22;50.72;98915.63;10218350;28;20416;-63
2022/04/24 18:32:14;;;;;;;8.38;7.75;;;;;;;14.15;51.15;98924.34;10217049;28;20062;-65
2022/04/24 18:42:37;;;;;;;7.75;7.05;;;;;;;14.12;50.91;98932.75;10219479;28;20061;-63
2022/04/24 18:47:39;;;;;;;8.25;7.63;;;;;;;13.95;51.63;98944.59;10217950;28;20073;-64
2022/04/24 18:52:41;;;;;;;8.60;7.90;;;;;;;13.96;51.34;98952.44;10214892;28;20161;-64
2022/04/24 18:57:42;;;;;;;8.68;7.97;;;;;;;13.89;51.35;98947.97;10215505;28;20051;-63
2022/04/24 19:02:43;;;;;;;8.25;7.60;;;;;;;13.79;51.37;98949.00;10218265;28;20081;-62
2022/04/24 19:07:46;;;;;;;8.02;7.38;;;;;;;13.77;52.11;98971.59;10216355;28;20065;-62
2022/04/24 19:12:48;;;;;;;9.10;8.30;;;;;;;13.68;51.79;98991.38;10219229;28;20051;-63
2022/04/24 19:17:51;;;;;;;8.32;7.72;;;;;;;13.57;52.38;99005.94;10223668;28;20061;-63
2022/04/24 19:22:52;;;;;;;9.10;8.32;;;;;;;13.47;52.81;99000.81;10227875;28;20126;-63
2022/04/24 19:27:54;;;;;;;8.93;8.13;;;;;;;13.43;53.05;99018.19;10230881;28;20111;-62
2022/04/24 19:32:56;;;;;;;8.85;8.15;;;;;;;13.37;53.16;99017.03;10222620;28;20116;-63
2022/04/24 19:37:58;;;;;;;8.70;7.95;;;;;;;13.20;53.33;99008.22;10222746;28;20061;-63
2022/04/24 19:43:03;;;;;;;8.52;7.82;;;;;;;13.26;53.60;99028.09;10225839;28;20054;-63
2022/04/24 19:53:27;;;;;;;9.82;8.93;;;;;;;13.13;54.27;99033.13;10227375;28;20256;-62
2022/04/24 19:58:29;;;;;;;9.18;8.38;;;;;;;13.15;54.26;99044.47;10248589;28;20424;-62
2022/04/24 20:03:31;;;;;;;8.80;8.10;;;;;;;13.13;54.10;99046.47;10223981;28;20054;-63
2022/04/24 20:08:33;;;;;;;9.00;8.20;;;;;;;12.98;54.48;99041.81;10223458;28;20051;-63
2022/04/24 20:13:34;;;;;;;10.85;9.95;;;;;;;13.00;54.94;99055.84;10224427;28;20050;-63
2022/04/24 20:18:37;;;;;;;10.50;9.57;;;;;;;13.00;54.39;99061.19;10224034;28;20507;-63
2022/04/24 20:23:38;;;;;;;10.32;9.48;;;;;;;12.95;55.33;99068.03;10221680;28;20059;-63
2022/04/24 20:28:40;;;;;;;9.93;9.13;;;;;;;12.93;55.19;99068.19;10227608;28;20080;-63
2022/04/24 20:33:43;;;;;;;10.63;9.73;;;;;;;12.84;55.73;99075.38;10216375;28;20459;-63
2022/04/24 20:38:45;;;;;;;11.23;10.23;;;;;;;12.79;55.49;99063.53;10224664;28;20050;-64
2022/04/24 20:43:46;;;;;;;10.63;9.73;;;;;;;12.89;55.52;99085.56;10226130;28;20069;-63
2022/04/24 20:48:48;;;;;;;10.65;9.68;;;;;;;12.89;55.70;99081.03;10222698;28;20055;-63
2022/04/24 20:53:49;;;;;;;9.75;8.77;;;;;;;12.80;55.74;99081.22;10224426;28;20186;-63
2022/04/24 20:58:51;;;;;;;10.57;9.68;;;;;;;12.71;56.23;99075.03;10224473;28;20061;-63
2022/04/24 21:03:53;;;;;;;10.55;9.60;;;;;;;12.61;56.11;99063.69;10212247;28;20061;-63
2022/04/24 21:08:54;;;;;;;10.50;9.50;;;;;;;12.64;56.42;99085.56;10220396;28;20077;-66
2022/04/24 21:13:56;;;;;;;10.88;9.98;;;;;;;12.62;56.47;99063.50;10221096;28;20054;-65
2022/04/24 21:19:21;;;;;;;9.65;8.85;;;;;;;12.69;56.59;99096.56;10220583;28;20094;-65
2022/04/24 21:24:23;;;;;;;10.65;9.75;;;;;;;12.69;56.15;99099.22;10222587;28;20059;-65
2022/04/24 21:29:24;;;;;;;10.30;9.20;;;;;;;12.66;56.49;99106.75;10221959;28;20055;-65
2022/04/24 21:34:26;;;;;;;10.77;9.80;;;;;;;12.39;56.96;99111.38;10220372;28;20697;-67
2022/04/24 21:39:28;;;;;;;10.45;9.55;;;;;;;12.46;57.20;99108.88;10220156;28;20835;-65
2022/04/24 21:44:30;;;;;;;9.80;8.90;;;;;;;12.40;56.90;99104.19;10219125;28;20055;-65
2022/04/24 21:49:32;;;;;;;10.13;9.13;;;;;;;12.42;56.68;99102.22;10220870;28;20541;-64
2022/04/24 21:54:33;;;;;;;10.43;9.43;;;;;;;12.53;56.69;99116.03;10214929;28;20047;-70
2022/04/24 21:59:35;;;;;;;9.32;8.35;;;;;;;12.56;56.06;99117.56;10217270;28;20046;-65
2022/04/24 22:04:57;;;;;;;9.75;8.80;;;;;;;12.50;55.97;99116.38;10220584;28;20055;-65
2022/04/24 22:09:58;;;;;;;8.43;7.80;;;;;;;12.28;57.27;99120.50;10220278;28;20327;-64
2022/04/24 22:15:00;;;;;;;9.50;8.50;;;;;;;12.44;56.72;99142.91;10230430;28;20147;-64
2022/04/24 22:20:01;;;;;;;9.25;8.45;;;;;;;12.32;57.08;99143.19;10235751;28;20059;-64
2022/04/24 22:25:03;;;;;;;9.35;8.63;;;;;;;12.38;57.04;99134.56;10237001;28;20502;-65
2022/04/24 22:30:05;;;;;;;9.85;9.05;;;;;;;12.34;56.80;99141.22;10232001;28;20470;-63
2022/04/24 22:35:06;;;;;;;10.25;9.35;;;;;;;12.30;57.47;99129.19;10233045;28;20050;-64
2022/04/24 22:40:08;;;;;;;10.25;9.35;;;;;;;12.28;57.36;99135.66;10231095;28;20067;-64
2022/04/24 22:45:10;;;;;;;11.48;10.40;;;;;;;12.24;57.62;99147.69;10231621;28;20377;-64
2022/04/24 22:50:14;;;;;;;10.02;9.15;;;;;;;12.14;57.90;99137.94;10230380;28;20165;-66
2022/04/24 22:55:16;;;;;;;11.02;9.93;;;;;;;12.24;58.41;99153.84;10229865;28;20079;-64
2022/04/24 23:00:18;;;;;;;10.10;9.20;;;;;;;12.15;57.54;99158.31;10232077;28;20081;-63
2022/04/24 23:05:21;;;;;;;11.85;10.75;;;;;;;12.01;58.94;99161.59;10229391;28;20122;-64
2022/04/24 23:10:23;;;;;;;11.02;10.02;;;;;;;11.79;58.50;99162.94;10235884;28;20077;-64
2022/04/24 23:15:25;;;;;;;11.55;10.48;;;;;;;11.60;59.82;99159.47;10244970;28;20134;-63
2022/04/24 23:20:26;;;;;;;12.90;11.68;;;;;;;11.55;60.31;99177.78;10253655;28;20135;-64
2022/04/24 23:25:27;;;;;;;12.63;11.32;;;;;;;11.56;60.65;99154.63;10259339;28;20465;-65
2022/04/24 23:30:30;;;;;;;12.95;11.70;;;;;;;11.62;59.84;99161.97;10234551;28;20050;-63
2022/04/24 23:35:31;;;;;;;12.85;11.68;;;;;;;11.57;61.20;99154.47;10237501;28;20054;-64
2022/04/24 23:40:33;;;;;;;13.38;12.00;;;;;;;11.71;60.56;99162.88;10240018;28;20039;-64
2022/04/24 23:45:34;;;;;;;12.90;11.80;;;;;;;11.80;60.43;99178.78;10240469;28;20053;-64
2022/04/24 23:50:36;;;;;;;13.02;11.93;;;;;;;11.80;60.73;99169.94;10236148;28;20525;-64
2022/04/24 23:55:39;;;;;;;12.48;11.38;;;;;;;11.76;60.39;99195.25;10237361;28;20051;-64
